Time;durP1;ratioP1;P1;durP2;ratioP2;P2;SDS_P1;SDS_P2;PMS_P1;PMS_P2;Temp;Humidity;BMP_temperature;BMP_pressure;BME280_temperature;BME280_humidity;BME280_pressure;Samples;Min_cycle;Max_cycle;Signal;HPM_P1;HPM_P2
2023/08/11 00:00:33;;;;;;;;;;;17.20;99.90;;;;;;7325435;19;9638;-82
2023/08/11 00:03:01;;;;;;;;;;;17.20;99.90;;;;;;7325160;19;9291;-82
2023/08/11 00:05:36;;;;;;;;;;;17.20;99.90;;;;;;7325309;19;9247;-83
2023/08/11 00:08:06;;;;;;;;;;;17.20;99.90;;;;;;7325438;19;9481;-82
2023/08/11 00:10:35;;;;;;;;;;;17.20;99.90;;;;;;7325361;19;9295;-82
2023/08/11 00:13:06;;;;;;;;;;;17.20;99.90;;;;;;7325119;19;9503;-82
2023/08/11 00:15:39;;;;;;;;;;;17.30;99.90;;;;;;7323413;19;9146;-82
2023/08/11 00:18:10;;;;;;;;;;;17.30;99.90;;;;;;7324868;19;9305;-82
2023/08/11 00:20:41;;;;;;;;;;;17.30;99.90;;;;;;7324956;19;9349;-83
2023/08/11 00:23:10;;;;;;;;;;;17.30;99.90;;;;;;7325271;19;9103;-82
2023/08/11 00:25:39;;;;;;;;;;;17.40;99.90;;;;;;7324960;19;9348;-82
2023/08/11 00:28:08;;;;;;;;;;;17.40;99.90;;;;;;7324805;19;9205;-82
2023/08/11 00:30:37;;;;;;;;;;;17.40;99.90;;;;;;7324440;19;11105;-82
2023/08/11 00:33:07;;;;;;;;;;;17.30;99.90;;;;;;7324544;19;9438;-82
2023/08/11 00:35:36;;;;;;;;;;;17.30;99.90;;;;;;7323112;19;10226;-82
2023/08/11 00:38:08;;;;;;;;;;;17.20;99.90;;;;;;7325862;19;9195;-82
2023/08/11 00:40:37;;;;;;;;;;;17.30;99.90;;;;;;7322942;19;9200;-82
2023/08/11 00:43:06;;;;;;;;;;;17.30;99.90;;;;;;7324250;19;8996;-82
2023/08/11 00:45:36;;;;;;;;;;;17.20;99.90;;;;;;7324361;19;9304;-82
2023/08/11 00:48:05;;;;;;;;;;;17.20;99.90;;;;;;7324138;19;9131;-82
2023/08/11 00:50:34;;;;;;;;;;;17.10;99.90;;;;;;7324043;19;9183;-82
2023/08/11 00:53:03;;;;;;;;;;;17.10;99.90;;;;;;7323800;19;9184;-82
2023/08/11 00:55:36;;;;;;;;;;;17.10;99.90;;;;;;7322720;19;9456;-82
2023/08/11 00:58:07;;;;;;;;;;;17.20;99.90;;;;;;7323913;19;9525;-82
2023/08/11 01:00:37;;;;;;;;;;;17.20;99.90;;;;;;7323698;19;9527;-82
2023/08/11 01:03:06;;;;;;;;;;;17.20;99.90;;;;;;7323990;19;9176;-82
2023/08/11 01:05:45;;;;;;;;;;;17.10;99.90;;;;;;7323916;19;9253;-81
2023/08/11 01:08:24;;;;;;;;;;;17.10;99.90;;;;;;7323854;19;9326;-82
2023/08/11 01:11:12;;;;;;;;;;;17.10;99.90;;;;;;7323812;19;9252;-82
2023/08/11 01:13:50;;;;;;;;;;;17.10;99.90;;;;;;7323606;19;9499;-82
2023/08/11 01:16:23;;;;;;;;;;;17.10;99.90;;;;;;7322158;19;9236;-82
2023/08/11 01:18:53;;;;;;;;;;;17.10;99.90;;;;;;7323376;19;9270;-82
2023/08/11 01:21:27;;;;;;;;;;;17.00;99.90;;;;;;7323493;19;9228;-81
2023/08/11 01:23:59;;;;;;;;;;;17.00;99.90;;;;;;7323360;19;9176;-82
2023/08/11 01:26:28;;;;;;;;;;;16.90;99.90;;;;;;7322942;19;9180;-81
2023/08/11 01:28:58;;;;;;;;;;;16.90;99.90;;;;;;7323679;19;9207;-81
2023/08/11 01:31:26;;;;;;;;;;;16.80;99.90;;;;;;7322981;19;9428;-81
2023/08/11 01:33:55;;;;;;;;;;;16.70;99.90;;;;;;7323076;19;9247;-81
2023/08/11 01:36:25;;;;;;;;;;;16.60;99.90;;;;;;7321236;19;9245;-82
2023/08/11 01:38:54;;;;;;;;;;;16.60;99.90;;;;;;7325688;19;9481;-81
2023/08/11 01:41:25;;;;;;;;;;;16.50;99.90;;;;;;7321187;19;9184;-82
2023/08/11 01:43:55;;;;;;;;;;;16.50;99.90;;;;;;7322736;19;9481;-82
2023/08/11 01:46:28;;;;;;;;;;;16.40;99.90;;;;;;7322997;19;9454;-81
2023/08/11 01:49:00;;;;;;;;;;;16.40;99.90;;;;;;7323554;19;9284;-82
2023/08/11 01:51:29;;;;;;;;;;;16.40;99.90;;;;;;7322547;19;9189;-81
2023/08/11 01:53:58;;;;;;;;;;;16.40;99.90;;;;;;7322440;19;10170;-82
2023/08/11 01:56:31;;;;;;;;;;;16.40;99.90;;;;;;7320655;19;9299;-81
2023/08/11 01:59:00;;;;;;;;;;;16.30;99.90;;;;;;7322555;19;9222;-81
2023/08/11 02:01:29;;;;;;;;;;;16.30;99.90;;;;;;7322136;19;9262;-82
2023/08/11 02:03:58;;;;;;;;;;;16.20;99.90;;;;;;7322023;19;9178;-82
2023/08/11 02:06:27;;;;;;;;;;;16.20;99.90;;;;;;7329034;19;9462;-82
2023/08/11 02:08:56;;;;;;;;;;;16.10;99.90;;;;;;7329204;19;9283;-82
2023/08/11 02:11:25;;;;;;;;;;;16.10;99.90;;;;;;7328865;19;10711;-81
2023/08/11 02:13:57;;;;;;;;;;;16.10;99.90;;;;;;7328844;19;9211;-82
2023/08/11 02:16:26;;;;;;;;;;;16.00;99.90;;;;;;7326714;19;8944;-81
2023/08/11 02:18:55;;;;;;;;;;;16.00;99.90;;;;;;7328996;19;9275;-81
2023/08/11 02:21:24;;;;;;;;;;;16.00;99.90;;;;;;7328853;19;9175;-81
2023/08/11 02:23:53;;;;;;;;;;;15.90;99.90;;;;;;7328466;19;9225;-81
2023/08/11 02:26:22;;;;;;;;;;;15.80;99.90;;;;;;7328477;19;10586;-81
2023/08/11 02:28:52;;;;;;;;;;;15.80;99.90;;;;;;7328544;19;9498;-81
2023/08/11 02:31:25;;;;;;;;;;;15.80;99.90;;;;;;7328383;19;9303;-81
2023/08/11 02:33:54;;;;;;;;;;;15.80;99.90;;;;;;7329139;19;9209;-81
2023/08/11 02:36:23;;;;;;;;;;;15.80;99.90;;;;;;7326890;19;9345;-81
2023/08/11 02:38:53;;;;;;;;;;;15.70;99.90;;;;;;7328334;19;9453;-82
2023/08/11 02:41:22;;;;;;;;;;;15.70;99.90;;;;;;7325992;19;9201;-81
2023/08/11 02:43:51;;;;;;;;;;;15.70;99.90;;;;;;7328040;19;9478;-82
2023/08/11 02:46:23;;;;;;;;;;;15.60;99.90;;;;;;7328026;19;9905;-82
2023/08/11 02:48:52;;;;;;;;;;;15.60;99.90;;;;;;7327817;19;9300;-82
2023/08/11 02:51:21;;;;;;;;;;;15.60;99.90;;;;;;7327753;19;9222;-81
2023/08/11 02:53:50;;;;;;;;;;;15.60;99.90;;;;;;7327402;19;9165;-82
2023/08/11 02:56:19;;;;;;;;;;;15.60;99.90;;;;;;7326089;19;9455;-82
2023/08/11 02:58:48;;;;;;;;;;;15.60;99.90;;;;;;7327462;19;9203;-82
2023/08/11 03:01:17;;;;;;;;;;;15.50;99.90;;;;;;7327351;19;9184;-82
2023/08/11 03:03:49;;;;;;;;;;;15.50;99.90;;;;;;7327380;19;9213;-82
2023/08/11 03:06:18;;;;;;;;;;;15.50;99.90;;;;;;7327261;19;9335;-82
2023/08/11 03:08:47;;;;;;;;;;;15.50;99.90;;;;;;7326904;19;9484;-82
2023/08/11 03:11:16;;;;;;;;;;;15.40;99.90;;;;;;7327135;19;9217;-82
2023/08/11 03:13:45;;;;;;;;;;;15.40;99.90;;;;;;7326994;19;9500;-82
2023/08/11 03:16:14;;;;;;;;;;;15.30;99.90;;;;;;7323029;19;9200;-82
2023/08/11 03:18:43;;;;;;;;;;;15.30;99.90;;;;;;7326861;19;9230;-82
2023/08/11 03:21:14;;;;;;;;;;;15.30;99.90;;;;;;7326974;19;9496;-82
2023/08/11 03:23:43;;;;;;;;;;;15.20;99.90;;;;;;7326665;19;9202;-82
2023/08/11 03:26:13;;;;;;;;;;;15.20;99.90;;;;;;7326458;19;10982;-82
2023/08/11 03:28:42;;;;;;;;;;;15.20;99.90;;;;;;7326508;19;9741;-82
2023/08/11 03:31:11;;;;;;;;;;;15.20;99.90;;;;;;7326349;19;9243;-82
2023/08/11 03:33:40;;;;;;;;;;;15.10;99.90;;;;;;7326183;19;8944;-81
2023/08/11 03:36:08;;;;;;;;;;;15.10;99.90;;;;;;7325283;19;9184;-82
2023/08/11 03:38:40;;;;;;;;;;;15.00;99.90;;;;;;7325963;19;9161;-81
2023/08/11 03:41:09;;;;;;;;;;;15.00;99.90;;;;;;7323708;19;9471;-81
2023/08/11 03:43:38;;;;;;;;;;;15.00;99.90;;;;;;7325611;19;9479;-82
2023/08/11 03:46:07;;;;;;;;;;;15.10;99.90;;;;;;7325820;19;9218;-81
2023/08/11 03:48:36;;;;;;;;;;;15.10;99.90;;;;;;7325765;19;9113;-82
2023/08/11 03:51:06;;;;;;;;;;;15.20;99.90;;;;;;7325848;19;9129;-81
2023/08/11 03:53:39;;;;;;;;;;;15.30;99.90;;;;;;7325708;19;9503;-82
2023/08/11 03:56:08;;;;;;;;;;;15.30;99.90;;;;;;7324956;19;9173;-82
2023/08/11 03:58:38;;;;;;;;;;;15.30;99.90;;;;;;7325207;19;9299;-82
2023/08/11 04:01:07;;;;;;;;;;;15.20;99.90;;;;;;7325354;19;9216;-82
2023/08/11 04:03:36;;;;;;;;;;;15.10;99.90;;;;;;7325533;19;9362;-81
2023/08/11 04:06:06;;;;;;;;;;;15.20;99.90;;;;;;7325249;19;11119;-81
2023/08/11 04:08:35;;;;;;;;;;;15.20;99.90;;;;;;7325101;19;9638;-82
2023/08/11 04:11:06;;;;;;;;;;;15.20;99.90;;;;;;7324943;19;10252;-82
2023/08/11 04:13:35;;;;;;;;;;;15.20;99.90;;;;;;7325106;19;9180;-81
2023/08/11 04:16:04;;;;;;;;;;;15.20;99.90;;;;;;7324137;19;9209;-82
2023/08/11 04:18:33;;;;;;;;;;;15.20;99.90;;;;;;7324956;19;9483;-82
2023/08/11 04:21:02;;;;;;;;;;;15.10;99.90;;;;;;7324615;19;9178;-82
2023/08/11 04:23:31;;;;;;;;;;;15.10;99.90;;;;;;7324525;19;9328;-82
2023/08/11 04:26:00;;;;;;;;;;;15.10;99.90;;;;;;7324783;19;9518;-82
2023/08/11 04:28:31;;;;;;;;;;;15.00;99.90;;;;;;7323812;19;9502;-82
2023/08/11 04:31:00;;;;;;;;;;;15.00;99.90;;;;;;7324918;19;9205;-82
2023/08/11 04:33:32;;;;;;;;;;;15.00;99.90;;;;;;7324672;19;9155;-82
2023/08/11 04:36:02;;;;;;;;;;;15.00;99.90;;;;;;7324095;19;9157;-82
2023/08/11 04:38:32;;;;;;;;;;;15.00;99.90;;;;;;7329019;19;9173;-81
2023/08/11 04:41:01;;;;;;;;;;;15.00;99.90;;;;;;7322655;19;9168;-81
2023/08/11 04:43:33;;;;;;;;;;;15.10;99.90;;;;;;7324388;19;9499;-82
2023/08/11 04:46:03;;;;;;;;;;;15.10;99.90;;;;;;7324577;19;9161;-82
2023/08/11 04:48:32;;;;;;;;;;;15.20;99.90;;;;;;7324620;19;9126;-82
2023/08/11 04:51:01;;;;;;;;;;;15.20;99.90;;;;;;7325157;19;10058;-82
2023/08/11 04:53:31;;;;;;;;;;;15.30;99.90;;;;;;7324075;19;9204;-82
2023/08/11 04:56:00;;;;;;;;;;;15.30;99.90;;;;;;7323673;19;9181;-82
2023/08/11 04:58:28;;;;;;;;;;;15.40;99.90;;;;;;7323701;19;9260;-82
2023/08/11 05:01:00;;;;;;;;;;;15.40;99.90;;;;;;7323702;19;9473;-82
2023/08/11 05:03:29;;;;;;;;;;;15.40;99.90;;;;;;7323625;19;9181;-82
2023/08/11 05:05:59;;;;;;;;;;;15.40;99.90;;;;;;7323683;19;9489;-82
2023/08/11 05:08:27;;;;;;;;;;;15.50;99.90;;;;;;7323450;19;9221;-81
2023/08/11 05:10:56;;;;;;;;;;;15.50;99.90;;;;;;7323521;19;9300;-82
2023/08/11 05:13:25;;;;;;;;;;;15.50;99.90;;;;;;7323112;19;9436;-82
2023/08/11 05:15:54;;;;;;;;;;;15.50;99.90;;;;;;7322895;19;9201;-82
2023/08/11 05:18:26;;;;;;;;;;;15.60;99.90;;;;;;7322988;19;9355;-82
2023/08/11 05:20:55;;;;;;;;;;;15.60;99.90;;;;;;7323103;19;9312;-81
2023/08/11 05:23:24;;;;;;;;;;;15.70;99.90;;;;;;7322983;19;9116;-82
2023/08/11 05:25:53;;;;;;;;;;;15.80;99.90;;;;;;7322621;19;8997;-81
2023/08/11 05:28:22;;;;;;;;;;;15.80;99.90;;;;;;7322780;19;8945;-81
2023/08/11 05:30:51;;;;;;;;;;;15.80;99.90;;;;;;7322513;19;9282;-82
2023/08/11 05:33:20;;;;;;;;;;;15.80;99.90;;;;;;7322679;19;9511;-82
2023/08/11 05:35:51;;;;;;;;;;;15.90;99.90;;;;;;7321928;19;9176;-81
2023/08/11 05:38:25;;;;;;;;;;;15.90;99.90;;;;;;7326896;19;9723;-82
2023/08/11 05:40:54;;;;;;;;;;;16.00;99.90;;;;;;7325661;19;9498;-82
2023/08/11 05:43:23;;;;;;;;;;;16.00;99.90;;;;;;7329882;19;9484;-82
2023/08/11 05:45:52;;;;;;;;;;;16.10;99.90;;;;;;7329866;19;10307;-82
2023/08/11 05:48:21;;;;;;;;;;;16.10;99.90;;;;;;7329868;19;9189;-82
2023/08/11 05:50:53;;;;;;;;;;;16.20;99.90;;;;;;7329701;19;9169;-82
2023/08/11 05:53:25;;;;;;;;;;;16.20;99.90;;;;;;7329808;19;9586;-82
2023/08/11 05:55:54;;;;;;;;;;;16.30;99.90;;;;;;7329399;19;9279;-82
2023/08/11 05:58:23;;;;;;;;;;;16.30;99.90;;;;;;7329317;19;9407;-82
2023/08/11 06:00:52;;;;;;;;;;;16.50;99.90;;;;;;7329206;19;9604;-81
2023/08/11 06:03:21;;;;;;;;;;;16.50;99.90;;;;;;7329301;19;9502;-82
2023/08/11 06:05:53;;;;;;;;;;;16.60;99.90;;;;;;7329027;19;9476;-82
2023/08/11 06:08:23;;;;;;;;;;;16.70;99.90;;;;;;7329023;19;9295;-81
2023/08/11 06:10:51;;;;;;;;;;;16.80;99.90;;;;;;7328940;19;9246;-81
2023/08/11 06:13:20;;;;;;;;;;;16.80;99.90;;;;;;7328988;19;9245;-81
2023/08/11 06:15:49;;;;;;;;;;;16.80;99.90;;;;;;7328922;19;9565;-82
2023/08/11 06:18:18;;;;;;;;;;;16.90;99.90;;;;;;7326091;19;9158;-82
2023/08/11 06:20:48;;;;;;;;;;;17.00;99.90;;;;;;7328625;19;9199;-82
2023/08/11 06:23:19;;;;;;;;;;;17.10;99.90;;;;;;7328786;19;9683;-82
2023/08/11 06:25:48;;;;;;;;;;;17.20;99.90;;;;;;7328351;19;9196;-82
2023/08/11 06:28:17;;;;;;;;;;;17.20;99.90;;;;;;7328346;19;9197;-82
2023/08/11 06:30:46;;;;;;;;;;;17.30;99.90;;;;;;7327967;19;9165;-82
2023/08/11 06:33:15;;;;;;;;;;;17.50;99.90;;;;;;7328396;19;9204;-82
2023/08/11 06:35:44;;;;;;;;;;;17.60;99.90;;;;;;7327903;19;9288;-82
2023/08/11 06:38:13;;;;;;;;;;;17.70;99.90;;;;;;7329936;19;9161;-82
2023/08/11 06:40:45;;;;;;;;;;;17.70;99.90;;;;;;7325450;19;9257;-80
2023/08/11 06:43:14;;;;;;;;;;;17.80;99.90;;;;;;7327921;19;9177;-82
2023/08/11 06:45:45;;;;;;;;;;;17.90;99.90;;;;;;7327895;19;9176;-82
2023/08/11 06:48:14;;;;;;;;;;;17.90;99.90;;;;;;7327905;19;9292;-81
2023/08/11 06:50:43;;;;;;;;;;;17.90;99.90;;;;;;7327335;19;9165;-82
2023/08/11 06:53:12;;;;;;;;;;;18.00;99.90;;;;;;7327908;19;9181;-82
2023/08/11 06:55:41;;;;;;;;;;;18.10;99.90;;;;;;7327609;19;9181;-82
2023/08/11 06:58:13;;;;;;;;;;;18.10;99.90;;;;;;7325261;19;9165;-82
2023/08/11 07:00:42;;;;;;;;;;;18.20;99.90;;;;;;7327382;19;9128;-82
2023/08/11 07:03:11;;;;;;;;;;;18.30;99.90;;;;;;7327934;19;9291;-82
2023/08/11 07:05:40;;;;;;;;;;;18.40;99.90;;;;;;7329063;19;9259;-82
2023/08/11 07:08:09;;;;;;;;;;;18.60;99.90;;;;;;7327760;19;9161;-82
2023/08/11 07:10:59;;;;;;;;;;;18.80;99.90;;;;;;7325781;19;9197;-81
2023/08/11 07:13:30;;;;;;;;;;;19.00;99.90;;;;;;7327139;19;9190;-82
2023/08/11 07:16:00;;;;;;;;;;;19.10;99.90;;;;;;7327027;19;9171;-82
2023/08/11 07:18:30;;;;;;;;;;;19.20;99.90;;;;;;7324608;19;9164;-82
2023/08/11 07:20:59;;;;;;;;;;;19.30;99.90;;;;;;7326706;19;9203;-82
2023/08/11 07:23:27;;;;;;;;;;;19.40;99.90;;;;;;7326647;19;9241;-82
2023/08/11 07:25:56;;;;;;;;;;;19.60;99.90;;;;;;7326363;19;9191;-82
2023/08/11 07:28:25;;;;;;;;;;;19.70;99.90;;;;;;7326381;19;9182;-81
2023/08/11 07:30:57;;;;;;;;;;;19.90;99.90;;;;;;7326307;19;10360;-81
2023/08/11 07:33:26;;;;;;;;;;;20.10;99.90;;;;;;7326313;19;9289;-82
2023/08/11 07:35:55;;;;;;;;;;;20.30;99.90;;;;;;7327150;19;8944;-82
2023/08/11 07:38:24;;;;;;;;;;;20.60;99.90;;;;;;7324180;19;9317;-82
2023/08/11 07:40:53;;;;;;;;;;;20.80;99.90;;;;;;7323634;19;9493;-82
2023/08/11 07:43:22;;;;;;;;;;;21.20;99.90;;;;;;7325932;19;9256;-82
2023/08/11 07:45:51;;;;;;;;;;;21.60;99.90;;;;;;7325858;19;9295;-82
2023/08/11 07:48:22;;;;;;;;;;;21.80;99.90;;;;;;7325586;19;9235;-82
2023/08/11 07:50:51;;;;;;;;;;;22.10;99.90;;;;;;7325616;19;9220;-82
2023/08/11 07:53:20;;;;;;;;;;;22.40;99.90;;;;;;7325767;19;9193;-82
2023/08/11 07:55:49;;;;;;;;;;;22.60;98.50;;;;;;7325195;19;9207;-81
2023/08/11 07:58:18;;;;;;;;;;;22.80;97.20;;;;;;7323556;19;9461;-82
2023/08/11 08:00:47;;;;;;;;;;;22.90;95.80;;;;;;7325229;19;9500;-82
2023/08/11 08:03:16;;;;;;;;;;;23.00;93.70;;;;;;7323727;19;9310;-81
2023/08/11 08:05:47;;;;;;;;;;;23.10;92.90;;;;;;7325202;19;9485;-81
2023/08/11 08:08:17;;;;;;;;;;;23.20;92.60;;;;;;7325127;19;9199;-82
2023/08/11 08:10:47;;;;;;;;;;;23.20;91.90;;;;;;7324554;19;9579;-82
2023/08/11 08:13:16;;;;;;;;;;;23.30;92.10;;;;;;7324754;19;9217;-82
2023/08/11 08:15:45;;;;;;;;;;;23.40;90.70;;;;;;7324686;19;9181;-82
2023/08/11 08:18:14;;;;;;;;;;;23.40;90.30;;;;;;7323944;19;9197;-81
2023/08/11 08:20:43;;;;;;;;;;;23.40;91.20;;;;;;7324727;19;9381;-82
2023/08/11 08:23:15;;;;;;;;;;;23.50;91.30;;;;;;7324539;19;9280;-82
2023/08/11 08:25:44;;;;;;;;;;;23.60;89.80;;;;;;7324724;19;9267;-82
2023/08/11 08:28:13;;;;;;;;;;;23.60;89.40;;;;;;7324652;19;9234;-82
2023/08/11 08:30:42;;;;;;;;;;;23.60;90.20;;;;;;7324748;19;9131;-82
2023/08/11 08:33:11;;;;;;;;;;;23.60;89.70;;;;;;7324528;19;9195;-82
2023/08/11 08:35:40;;;;;;;;;;;23.70;88.20;;;;;;7324923;19;10158;-82
2023/08/11 08:38:09;;;;;;;;;;;23.70;86.90;;;;;;7323244;19;9211;-82
2023/08/11 08:40:42;;;;;;;;;;;23.60;87.70;;;;;;7322019;19;9349;-82
2023/08/11 08:43:12;;;;;;;;;;;23.40;88.60;;;;;;7323829;19;9459;-81
2023/08/11 08:45:45;;;;;;;;;;;23.20;88.90;;;;;;7324026;19;9510;-82
2023/08/11 08:48:23;;;;;;;;;;;23.10;89.80;;;;;;7323741;19;9186;-82
2023/08/11 08:50:53;;;;;;;;;;;22.90;89.70;;;;;;7323924;19;9450;-82
2023/08/11 08:53:22;;;;;;;;;;;22.90;90.80;;;;;;7323642;19;8936;-82
2023/08/11 08:55:54;;;;;;;;;;;22.80;91.40;;;;;;7323723;19;9181;-81
2023/08/11 08:58:23;;;;;;;;;;;22.80;92.10;;;;;;7322612;19;9157;-82
2023/08/11 09:00:52;;;;;;;;;;;22.80;91.30;;;;;;7323427;19;9138;-81
2023/08/11 09:03:22;;;;;;;;;;;22.80;91.60;;;;;;7323495;19;9217;-82
2023/08/11 09:05:51;;;;;;;;;;;22.80;92.00;;;;;;7323381;19;9510;-82
2023/08/11 09:08:20;;;;;;;;;;;22.80;91.70;;;;;;7323338;19;9621;-82
2023/08/11 09:10:49;;;;;;;;;;;22.80;92.70;;;;;;7323497;19;9195;-81
2023/08/11 09:13:22;;;;;;;;;;;22.80;93.00;;;;;;7322544;19;9175;-82
2023/08/11 09:15:52;;;;;;;;;;;22.90;91.80;;;;;;7323718;19;9344;-82
2023/08/11 09:18:21;;;;;;;;;;;22.90;91.70;;;;;;7325473;19;9437;-82
2023/08/11 09:20:51;;;;;;;;;;;22.90;91.40;;;;;;7324731;19;9462;-82
2023/08/11 09:23:21;;;;;;;;;;;22.90;91.40;;;;;;7323606;19;9170;-82
2023/08/11 09:25:49;;;;;;;;;;;23.00;91.20;;;;;;7323230;19;9218;-82
2023/08/11 09:28:21;;;;;;;;;;;23.00;91.20;;;;;;7323120;19;9158;-81
2023/08/11 09:30:51;;;;;;;;;;;23.10;90.80;;;;;;7323020;19;9470;-81
2023/08/11 09:33:20;;;;;;;;;;;23.10;90.80;;;;;;7322951;19;9254;-82
2023/08/11 09:35:49;;;;;;;;;;;23.20;91.60;;;;;;7323996;19;9186;-82
2023/08/11 09:38:19;;;;;;;;;;;23.30;91.50;;;;;;7321475;19;10357;-81
2023/08/11 09:40:50;;;;;;;;;;;23.30;91.20;;;;;;7320697;19;10375;-82
2023/08/11 09:43:22;;;;;;;;;;;23.40;90.80;;;;;;7322872;19;9212;-82
2023/08/11 09:45:51;;;;;;;;;;;23.50;90.80;;;;;;7322337;19;8944;-83
2023/08/11 09:48:21;;;;;;;;;;;23.50;90.10;;;;;;7322333;19;9181;-82
2023/08/11 09:50:55;;;;;;;;;;;23.50;90.10;;;;;;7322258;19;9226;-82
2023/08/11 09:53:26;;;;;;;;;;;23.60;89.00;;;;;;7322124;19;9539;-82
2023/08/11 09:55:58;;;;;;;;;;;23.60;87.90;;;;;;7321911;19;9196;-82
2023/08/11 09:58:32;;;;;;;;;;;23.70;87.80;;;;;;7321069;19;9194;-82
2023/08/11 10:01:01;;;;;;;;;;;23.70;86.90;;;;;;7321876;19;9165;-81
2023/08/11 10:03:39;;;;;;;;;;;23.70;86.80;;;;;;7321487;19;9241;-82
2023/08/11 10:06:08;;;;;;;;;;;23.80;87.60;;;;;;7321854;19;10466;-80
2023/08/11 10:08:39;;;;;;;;;;;23.90;87.00;;;;;;7321614;19;9208;-82
2023/08/11 10:11:09;;;;;;;;;;;24.00;86.60;;;;;;7321494;19;9422;-82
2023/08/11 10:13:45;;;;;;;;;;;24.00;85.90;;;;;;7321302;19;9292;-82
2023/08/11 10:16:14;;;;;;;;;;;24.10;85.30;;;;;;7321571;19;9227;-82
2023/08/11 10:18:46;;;;;;;;;;;24.20;84.30;;;;;;7320240;19;9288;-82
2023/08/11 10:21:16;;;;;;;;;;;24.20;83.00;;;;;;7321428;19;9405;-81
2023/08/11 10:23:46;;;;;;;;;;;24.20;81.70;;;;;;7321279;19;10385;-82
2023/08/11 10:26:15;;;;;;;;;;;24.20;82.00;;;;;;7325190;19;9344;-82
2023/08/11 10:28:48;;;;;;;;;;;24.20;81.90;;;;;;7328701;19;9488;-82
2023/08/11 10:31:17;;;;;;;;;;;24.20;81.50;;;;;;7328611;19;10214;-81
2023/08/11 10:33:51;;;;;;;;;;;24.30;81.30;;;;;;7328591;19;9193;-82
2023/08/11 10:36:25;;;;;;;;;;;24.30;81.70;;;;;;7330704;19;9528;-81
2023/08/11 10:39:05;;;;;;;;;;;24.40;81.00;;;;;;7326460;19;9263;-81
2023/08/11 10:41:35;;;;;;;;;;;24.40;80.40;;;;;;7326822;19;11189;-81
2023/08/11 10:44:08;;;;;;;;;;;24.40;80.40;;;;;;7327920;19;9220;-82
2023/08/11 10:46:38;;;;;;;;;;;24.40;80.20;;;;;;7328139;19;10369;-82
2023/08/11 10:49:32;;;;;;;;;;;24.40;80.40;;;;;;7327735;19;9167;-82
2023/08/11 10:52:03;;;;;;;;;;;24.50;80.00;;;;;;7327562;19;9163;-82
2023/08/11 10:54:32;;;;;;;;;;;24.50;79.70;;;;;;7327470;19;9276;-82
2023/08/11 10:57:03;;;;;;;;;;;24.50;79.80;;;;;;7327681;19;9310;-82
2023/08/11 10:59:37;;;;;;;;;;;24.60;79.30;;;;;;7325286;19;9526;-81
2023/08/11 11:02:06;;;;;;;;;;;24.70;79.60;;;;;;7327555;19;9174;-82
2023/08/11 11:04:36;;;;;;;;;;;24.70;79.00;;;;;;7327350;19;9259;-81
2023/08/11 11:07:05;;;;;;;;;;;24.80;78.80;;;;;;7327893;19;9213;-82
2023/08/11 11:09:34;;;;;;;;;;;24.90;78.40;;;;;;7327295;19;8999;-82
2023/08/11 11:12:02;;;;;;;;;;;24.80;77.90;;;;;;7327004;19;9185;-82
2023/08/11 11:14:36;;;;;;;;;;;24.90;77.70;;;;;;7326971;19;9280;-82
2023/08/11 11:17:05;;;;;;;;;;;24.90;77.60;;;;;;7327055;19;9250;-82
2023/08/11 11:19:35;;;;;;;;;;;24.90;77.80;;;;;;7324954;19;9193;-82
2023/08/11 11:22:05;;;;;;;;;;;24.90;77.90;;;;;;7326875;19;9173;-81
2023/08/11 11:24:34;;;;;;;;;;;25.00;77.30;;;;;;7326454;19;10316;-81
2023/08/11 11:27:03;;;;;;;;;;;24.90;77.60;;;;;;7327261;19;11139;-82
2023/08/11 11:29:35;;;;;;;;;;;25.00;77.30;;;;;;7326330;19;10567;-82
2023/08/11 11:32:06;;;;;;;;;;;25.10;76.70;;;;;;7329055;19;8944;-81
2023/08/11 11:34:39;;;;;;;;;;;25.10;77.10;;;;;;7327051;19;9480;-82
2023/08/11 11:37:08;;;;;;;;;;;25.10;76.80;;;;;;7328439;19;9314;-82
2023/08/11 11:39:37;;;;;;;;;;;25.20;76.30;;;;;;7323048;19;11019;-82
2023/08/11 11:42:08;;;;;;;;;;;25.20;76.20;;;;;;7323901;19;9209;-82
2023/08/11 11:44:44;;;;;;;;;;;25.20;76.70;;;;;;7326119;19;10205;-82
2023/08/11 11:47:13;;;;;;;;;;;25.30;77.00;;;;;;7325724;19;9298;-82
2023/08/11 11:49:42;;;;;;;;;;;25.30;77.00;;;;;;7325656;19;9478;-82
2023/08/11 11:52:12;;;;;;;;;;;25.40;76.50;;;;;;7325690;19;9183;-82
2023/08/11 11:54:41;;;;;;;;;;;25.50;75.80;;;;;;7325452;19;9170;-82
2023/08/11 11:57:10;;;;;;;;;;;25.50;74.60;;;;;;7325608;19;9453;-82
2023/08/11 11:59:43;;;;;;;;;;;25.40;74.60;;;;;;7323988;19;10338;-82
2023/08/11 12:02:13;;;;;;;;;;;25.30;74.90;;;;;;7325268;19;9201;-82
2023/08/11 12:04:44;;;;;;;;;;;25.30;75.30;;;;;;7325284;19;8944;-82
2023/08/11 12:07:33;;;;;;;;;;;25.40;75.20;;;;;;7325466;19;9164;-82
2023/08/11 12:10:04;;;;;;;;;;;25.50;74.80;;;;;;7325311;19;9447;-82
2023/08/11 12:12:34;;;;;;;;;;;25.50;74.50;;;;;;7325106;19;9386;-82
2023/08/11 12:15:07;;;;;;;;;;;25.50;74.30;;;;;;7325101;19;9135;-82
2023/08/11 12:17:38;;;;;;;;;;;25.50;74.00;;;;;;7324818;19;9503;-82
2023/08/11 12:20:12;;;;;;;;;;;25.40;74.30;;;;;;7323071;19;9251;-82
2023/08/11 12:22:42;;;;;;;;;;;25.40;74.30;;;;;;7325018;19;9189;-81
2023/08/11 12:25:11;;;;;;;;;;;25.40;74.60;;;;;;7324757;19;9196;-82
2023/08/11 12:27:40;;;;;;;;;;;25.40;74.20;;;;;;7324647;19;9444;-82
2023/08/11 12:30:14;;;;;;;;;;;25.50;74.30;;;;;;7324475;19;9140;-82
2023/08/11 12:32:43;;;;;;;;;;;25.50;74.00;;;;;;7322797;19;9363;-82
2023/08/11 12:35:13;;;;;;;;;;;25.60;73.90;;;;;;7327372;19;9364;-82
2023/08/11 12:37:42;;;;;;;;;;;25.60;73.70;;;;;;7324373;19;9549;-82
2023/08/11 12:40:12;;;;;;;;;;;25.60;73.50;;;;;;7322323;19;9418;-82
2023/08/11 12:42:42;;;;;;;;;;;25.60;73.60;;;;;;7323792;19;10561;-82
2023/08/11 12:45:14;;;;;;;;;;;25.40;73.80;;;;;;7324011;19;9284;-82
2023/08/11 12:47:43;;;;;;;;;;;25.40;74.20;;;;;;7323800;19;9111;-82
2023/08/11 12:50:12;;;;;;;;;;;25.30;74.50;;;;;;7323375;19;9181;-82
2023/08/11 12:52:41;;;;;;;;;;;25.20;74.80;;;;;;7323820;19;9135;-82
2023/08/11 12:55:12;;;;;;;;;;;25.30;74.80;;;;;;7323715;19;9146;-82
2023/08/11 12:57:41;;;;;;;;;;;25.40;74.40;;;;;;7323838;19;10289;-82
2023/08/11 13:00:14;;;;;;;;;;;25.30;74.40;;;;;;7322117;19;8995;-82
2023/08/11 13:02:43;;;;;;;;;;;25.30;74.50;;;;;;7323700;19;9393;-82
2023/08/11 13:05:32;;;;;;;;;;;25.40;74.60;;;;;;7322010;19;10126;-82
2023/08/11 13:08:01;;;;;;;;;;;25.40;74.40;;;;;;7323277;19;9204;-82
2023/08/11 13:10:30;;;;;;;;;;;25.50;74.40;;;;;;7322989;19;9564;-82
2023/08/11 13:12:59;;;;;;;;;;;25.50;74.20;;;;;;7323211;19;9254;-82
2023/08/11 13:15:30;;;;;;;;;;;25.60;73.90;;;;;;7323281;19;9137;-82
2023/08/11 13:17:59;;;;;;;;;;;25.50;73.90;;;;;;7323278;19;9598;-82
2023/08/11 13:20:28;;;;;;;;;;;25.50;73.70;;;;;;7321315;19;9192;-82
2023/08/11 13:22:57;;;;;;;;;;;25.60;73.90;;;;;;7322846;19;9288;-82
2023/08/11 13:25:26;;;;;;;;;;;25.60;73.90;;;;;;7322940;19;9451;-83
2023/08/11 13:27:55;;;;;;;;;;;25.70;73.70;;;;;;7322959;19;9267;-82
2023/08/11 13:30:24;;;;;;;;;;;25.80;73.50;;;;;;7322691;19;9177;-82
2023/08/11 13:32:56;;;;;;;;;;;25.80;73.40;;;;;;7322964;19;9202;-82
2023/08/11 13:35:25;;;;;;;;;;;25.80;73.30;;;;;;7326651;19;9161;-82
2023/08/11 13:37:54;;;;;;;;;;;25.80;73.10;;;;;;7323147;19;9165;-81
2023/08/11 13:40:23;;;;;;;;;;;25.90;73.30;;;;;;7322179;19;9271;-82
2023/08/11 13:42:52;;;;;;;;;;;25.90;73.10;;;;;;7325326;19;9193;-83
2023/08/11 13:45:22;;;;;;;;;;;25.90;72.90;;;;;;7323596;19;9485;-82
2023/08/11 13:47:51;;;;;;;;;;;25.90;72.70;;;;;;7322763;19;9189;-82
2023/08/11 13:50:22;;;;;;;;;;;26.00;73.20;;;;;;7322535;19;9118;-82
2023/08/11 13:52:51;;;;;;;;;;;25.90;72.80;;;;;;7322521;19;10430;-82
2023/08/11 13:55:20;;;;;;;;;;;25.90;72.80;;;;;;7322613;19;9207;-82
2023/08/11 13:57:49;;;;;;;;;;;25.90;73.20;;;;;;7322289;19;9555;-82
2023/08/11 14:00:19;;;;;;;;;;;25.90;73.20;;;;;;7322013;19;9185;-82
2023/08/11 14:02:48;;;;;;;;;;;26.00;72.90;;;;;;7329456;19;9511;-82
2023/08/11 14:05:17;;;;;;;;;;;26.00;73.00;;;;;;7329495;19;9217;-82
2023/08/11 14:07:50;;;;;;;;;;;25.90;72.80;;;;;;7329267;19;9219;-82
2023/08/11 14:10:19;;;;;;;;;;;25.90;73.10;;;;;;7329387;19;9189;-82
2023/08/11 14:12:49;;;;;;;;;;;25.90;73.30;;;;;;7329095;19;8949;-82
2023/08/11 14:15:18;;;;;;;;;;;25.90;73.20;;;;;;7328616;19;9105;-82
2023/08/11 14:17:46;;;;;;;;;;;25.90;73.20;;;;;;7328893;19;9193;-82
2023/08/11 14:20:15;;;;;;;;;;;25.80;73.20;;;;;;7326905;19;9180;-82
2023/08/11 14:22:44;;;;;;;;;;;25.70;73.50;;;;;;7328458;19;9246;-82
2023/08/11 14:25:16;;;;;;;;;;;25.60;74.20;;;;;;7328529;19;9283;-83
2023/08/11 14:27:45;;;;;;;;;;;25.60;74.20;;;;;;7328430;19;9153;-82
2023/08/11 14:30:14;;;;;;;;;;;25.50;74.20;;;;;;7328405;19;9466;-82
2023/08/11 14:32:43;;;;;;;;;;;25.50;74.60;;;;;;7328410;19;9442;-82
2023/08/11 14:35:12;;;;;;;;;;;25.40;75.20;;;;;;7331592;19;9287;-82
2023/08/11 14:37:41;;;;;;;;;;;25.30;75.40;;;;;;7328438;19;9289;-82
2023/08/11 14:40:11;;;;;;;;;;;25.30;75.70;;;;;;7326619;19;9284;-82
2023/08/11 14:42:42;;;;;;;;;;;25.10;76.20;;;;;;7328305;19;9536;-83
2023/08/11 14:45:12;;;;;;;;;;;25.00;76.60;;;;;;7328074;19;9213;-83